createdAt,value
2018-05-12T00:02:06.491Z,72.80
2018-05-12T00:04:34.398Z,72.90
2018-05-12T00:07:02.382Z,73.30
2018-05-12T00:09:31.175Z,72.80
2018-05-12T00:11:59.972Z,72.80
2018-05-12T00:14:28.671Z,72.40
2018-05-12T00:16:56.639Z,72.40
2018-05-12T00:19:24.618Z,73.10
2018-05-12T00:21:52.547Z,73.00
2018-05-12T00:24:20.463Z,72.80
2018-05-12T00:26:48.379Z,72.70
2018-05-12T00:29:16.374Z,73.50
2018-05-12T00:31:45.056Z,73.90
2018-05-12T00:34:13.727Z,73.70
2018-05-12T00:36:41.655Z,73.60
2018-05-12T00:39:09.537Z,73.90
2018-05-12T00:41:38.225Z,75.90
2018-05-12T00:44:06.208Z,75.90
2018-05-12T00:46:34.219Z,76.30
2018-05-12T00:49:02.932Z,76.30
2018-05-12T00:51:30.910Z,76.30
2018-05-12T00:53:58.921Z,76.30
2018-05-12T00:56:26.906Z,76.70
2018-05-12T00:58:55.599Z,76.80
2018-05-12T01:01:24.276Z,78.20
2018-05-12T01:03:52.995Z,77.80
2018-05-12T01:06:21.037Z,77.80
2018-05-12T01:08:49.762Z,77.60
2018-05-12T01:11:17.677Z,77.60
2018-05-12T01:13:45.658Z,77.60
2018-05-12T01:16:14.460Z,78.60
2018-05-12T01:18:42.430Z,78.60
2018-05-12T01:21:10.381Z,77.50
2018-05-12T01:23:39.096Z,79.20
2018-05-12T01:26:07.014Z,79.10
2018-05-12T01:28:34.992Z,78.80
2018-05-12T01:31:02.965Z,79.30
2018-05-12T01:33:30.883Z,78.30
2018-05-12T01:35:58.836Z,79.10
2018-05-12T01:38:26.779Z,78.80
2018-05-12T01:40:55.580Z,79.00
2018-05-12T01:43:24.297Z,80.00
2018-05-12T01:45:52.247Z,80.00
2018-05-12T01:48:20.143Z,79.60
2018-05-12T01:50:48.111Z,79.90
2018-05-12T01:53:16.007Z,79.60
2018-05-12T01:55:43.954Z,79.50
2018-05-12T01:58:11.919Z,79.70
2018-05-12T02:00:39.909Z,79.40
2018-05-12T02:03:07.819Z,80.00
2018-05-12T02:05:36.584Z,78.60
2018-05-12T02:08:04.562Z,78.50
2018-05-12T02:10:32.555Z,79.00
2018-05-12T02:13:00.503Z,79.60
2018-05-12T02:15:28.492Z,79.20
2018-05-12T02:17:57.158Z,79.70
2018-05-12T02:20:25.118Z,79.70
2018-05-12T02:22:53.054Z,79.30
2018-05-12T02:25:21.031Z,79.30
2018-05-12T02:27:48.975Z,79.20
2018-05-12T02:30:16.945Z,79.30
2018-05-12T02:32:44.924Z,79.10
2018-05-12T02:35:12.932Z,79.80
2018-05-12T02:37:40.917Z,78.70
2018-05-12T02:40:08.881Z,78.40
2018-05-12T02:42:37.689Z,78.10
2018-05-12T02:45:06.418Z,77.70
2018-05-12T02:47:34.343Z,77.70
2018-05-12T02:50:03.048Z,78.30
2018-05-12T02:52:30.970Z,78.10
2018-05-12T02:54:58.938Z,77.90
2018-05-12T02:57:26.875Z,78.30
2018-05-12T02:59:54.850Z,77.90
2018-05-12T03:02:22.815Z,78.20
2018-05-12T03:04:50.885Z,78.40
2018-05-12T03:07:18.894Z,78.60
2018-05-12T03:09:46.830Z,79.20
2018-05-12T03:12:14.831Z,78.70
2018-05-12T03:14:42.778Z,78.80
2018-05-12T03:17:10.723Z,79.10
2018-05-12T03:19:38.675Z,79.70
2018-05-12T03:22:07.335Z,79.90
2018-05-12T03:24:35.271Z,79.90
2018-05-12T03:27:03.219Z,79.40
2018-05-12T03:29:31.227Z,79.20
2018-05-12T03:31:59.222Z,79.00
2018-05-12T03:34:27.940Z,79.00
2018-05-12T03:36:55.934Z,79.10
2018-05-12T03:39:23.856Z,78.60
2018-05-12T03:41:52.584Z,78.70
2018-05-12T03:44:20.582Z,78.60
2018-05-12T03:46:48.508Z,78.80
2018-05-12T03:49:16.479Z,79.30
2018-05-12T03:51:44.380Z,78.80
2018-05-12T03:54:12.296Z,78.70
2018-05-12T03:56:40.988Z,78.80
2018-05-12T03:59:08.968Z,78.80
2018-05-12T04:01:36.948Z,77.90
2018-05-12T04:04:05.008Z,78.00
2018-05-12T04:06:44.753Z,78.10
2018-05-12T04:09:24.453Z,78.40
2018-05-12T04:12:04.146Z,78.40
2018-05-12T04:14:32.065Z,78.20
2018-05-12T04:17:00.006Z,78.20
2018-05-12T04:19:28.007Z,77.90
2018-05-12T04:21:55.931Z,77.50
2018-05-12T04:24:23.895Z,78.30
2018-05-12T04:26:51.796Z,78.10
2018-05-12T04:29:19.723Z,77.90
2018-05-12T04:31:47.656Z,78.00
2018-05-12T04:34:16.381Z,78.30
2018-05-12T04:36:44.374Z,78.30
2018-05-12T04:39:12.381Z,77.70
2018-05-12T04:41:40.438Z,77.50
2018-05-12T04:44:08.376Z,77.90
2018-05-12T04:46:36.487Z,77.90
2018-05-12T04:49:04.391Z,77.60
2018-05-12T04:51:33.085Z,77.50
2018-05-12T04:54:01.001Z,77.50
2018-05-12T04:56:28.987Z,77.20
2018-05-12T04:58:56.996Z,77.10
2018-05-12T05:01:24.933Z,77.20
2018-05-12T05:03:53.620Z,76.90
2018-05-12T05:06:21.673Z,76.90
2018-05-12T05:08:49.597Z,76.40
2018-05-12T05:11:17.621Z,77.50
2018-05-12T05:13:45.608Z,77.30
2018-05-12T05:16:14.346Z,77.10
2018-05-12T05:18:42.293Z,77.10
2018-05-12T05:21:10.358Z,77.00
2018-05-12T05:23:38.278Z,77.80
2018-05-12T05:26:06.221Z,77.40
2018-05-12T05:28:34.166Z,76.80
2018-05-12T05:31:02.139Z,76.20
2018-05-12T05:33:30.128Z,76.40
2018-05-12T05:35:58.123Z,75.90
2018-05-12T05:38:26.074Z,75.70
2018-05-12T05:40:53.991Z,76.00
2018-05-12T05:43:22.672Z,75.10
2018-05-12T05:45:51.446Z,74.60
2018-05-12T05:48:19.375Z,74.60
2018-05-12T05:50:47.294Z,74.90
2018-05-12T05:53:15.287Z,74.30
2018-05-12T05:55:43.204Z,73.90
2018-05-12T05:58:11.104Z,74.30
2018-05-12T06:00:39.143Z,74.20
2018-05-12T06:03:07.152Z,73.20
2018-05-12T06:05:35.846Z,75.00
2018-05-12T06:08:04.571Z,72.90
2018-05-12T06:10:32.502Z,72.80
2018-05-12T06:13:01.264Z,72.20
2018-05-12T06:15:29.180Z,72.10
2018-05-12T06:17:57.240Z,71.40
2018-05-12T06:20:25.178Z,72.00
2018-05-12T06:22:53.129Z,72.30
2018-05-12T06:25:21.066Z,72.30
2018-05-12T06:27:49.017Z,70.70
2018-05-12T06:30:16.932Z,69.20
2018-05-12T06:32:44.820Z,72.10
2018-05-12T06:35:12.826Z,69.20
2018-05-12T06:37:40.762Z,70.00
2018-05-12T06:40:08.765Z,71.60
2018-05-12T06:42:36.837Z,71.80
2018-05-12T06:45:04.831Z,70.10
2018-05-12T06:47:32.781Z,70.60
2018-05-12T06:50:00.721Z,70.00
2018-05-12T06:52:29.467Z,69.70
2018-05-12T06:54:57.653Z,69.70
2018-05-12T06:57:25.672Z,68.90
2018-05-12T06:59:54.398Z,70.50
2018-05-12T07:02:23.022Z,70.50
2018-05-12T07:04:50.939Z,71.80
2018-05-12T07:07:18.875Z,70.40
2018-05-12T07:09:47.551Z,65.20
2018-05-12T07:12:16.344Z,63.80
2018-05-12T07:14:45.155Z,65.50
2018-05-12T07:17:13.065Z,65.50
2018-05-12T07:19:41.062Z,64.50
2018-05-12T07:22:09.044Z,66.90
2018-05-12T07:24:37.784Z,65.50
2018-05-12T07:27:05.795Z,65.50
2018-05-12T07:29:34.550Z,64.70
2018-05-12T07:32:02.468Z,64.30
2018-05-12T07:34:31.219Z,63.40
2018-05-12T07:36:59.220Z,63.40
2018-05-12T07:39:27.885Z,63.90
2018-05-12T07:41:55.855Z,63.90
2018-05-12T07:44:23.821Z,63.70
2018-05-12T07:46:51.733Z,63.30
2018-05-12T07:49:19.686Z,64.10
2018-05-12T07:51:48.401Z,64.00
2018-05-12T07:54:16.372Z,64.20
2018-05-12T07:56:44.309Z,64.50
2018-05-12T07:59:13.073Z,63.10
2018-05-12T08:01:41.033Z,63.10
2018-05-12T08:04:08.971Z,62.20
2018-05-12T08:06:36.985Z,63.40
2018-05-12T08:09:05.041Z,63.20
2018-05-12T08:11:33.010Z,63.20
2018-05-12T08:15:12.465Z,61.20
2018-05-12T08:17:40.533Z,64.10
2018-05-12T08:20:08.479Z,62.40
2018-05-12T08:22:36.380Z,62.40
2018-05-12T08:25:04.457Z,61.90
2018-05-12T08:27:32.470Z,63.80
2018-05-12T08:30:00.390Z,62.60
2018-05-12T08:32:28.374Z,61.50
2018-05-12T08:34:57.052Z,61.50
2018-05-12T08:37:25.048Z,61.70
2018-05-12T08:39:53.827Z,63.30
2018-05-12T08:42:22.527Z,63.00
2018-05-12T08:44:50.430Z,62.80
2018-05-12T08:47:18.459Z,64.30
2018-05-12T08:49:47.124Z,59.10
2018-05-12T08:52:15.131Z,59.10
2018-05-12T08:54:43.095Z,62.00
2018-05-12T08:57:11.060Z,62.50
2018-05-12T08:59:39.050Z,60.70
2018-05-12T09:02:07.054Z,60.20
2018-05-12T09:04:34.952Z,60.20
2018-05-12T09:07:03.609Z,60.60
2018-05-12T09:09:31.612Z,60.60
2018-05-12T09:12:00.334Z,60.30
2018-05-12T09:14:28.330Z,60.30
2018-05-12T09:16:56.346Z,59.00
2018-05-12T09:19:25.123Z,59.20
2018-05-12T09:21:53.071Z,59.10
2018-05-12T09:24:21.011Z,58.80
2018-05-12T09:26:48.940Z,59.80
2018-05-12T09:29:17.661Z,58.70
2018-05-12T09:31:45.650Z,58.70
2018-05-12T09:34:13.567Z,60.70
2018-05-12T09:36:42.282Z,61.00
2018-05-12T09:39:10.233Z,61.10
2018-05-12T09:41:38.208Z,58.90
2018-05-12T09:44:06.223Z,59.60
2018-05-12T09:46:34.184Z,60.50
2018-05-12T09:49:02.163Z,58.20
2018-05-12T09:51:30.142Z,58.30
2018-05-12T09:53:58.087Z,60.00
2018-05-12T09:56:26.840Z,60.00
2018-05-12T09:58:54.790Z,59.50
2018-05-12T10:01:23.544Z,57.00
2018-05-12T10:03:51.467Z,57.00
2018-05-12T10:06:19.391Z,58.70
2018-05-12T10:08:47.328Z,57.80
2018-05-12T10:11:15.357Z,56.30
2018-05-12T10:13:44.125Z,54.80
2018-05-12T10:16:12.032Z,54.90
2018-05-12T10:18:39.932Z,57.10
2018-05-12T10:21:07.898Z,55.10
2018-05-12T10:23:35.981Z,57.20
2018-05-12T10:26:03.994Z,57.20
2018-05-12T10:28:31.994Z,58.70
2018-05-12T10:30:59.959Z,56.70
2018-05-12T10:33:27.946Z,58.30
2018-05-12T10:35:55.992Z,56.40
2018-05-12T10:38:24.014Z,53.70
2018-05-12T10:40:52.013Z,54.20
2018-05-12T10:43:20.781Z,56.60
2018-05-12T10:45:48.711Z,56.50
2018-05-12T10:48:16.702Z,53.10
2018-05-12T10:50:45.466Z,54.20
2018-05-12T10:53:13.428Z,54.30
2018-05-12T10:55:41.333Z,49.60
2018-05-12T10:58:09.362Z,51.60
2018-05-12T11:00:37.454Z,53.50
2018-05-12T11:03:05.403Z,51.60
2018-05-12T11:05:33.331Z,50.70
2018-05-12T11:08:01.353Z,52.30
2018-05-12T11:10:29.372Z,53.50
2018-05-12T11:12:57.279Z,50.70
2018-05-12T11:15:25.238Z,51.80
2018-05-12T11:17:53.923Z,53.30
2018-05-12T11:20:22.704Z,52.80
2018-05-12T11:22:50.727Z,52.70
2018-05-12T11:25:18.636Z,51.80
2018-05-12T11:27:47.462Z,51.10
2018-05-12T11:30:15.473Z,50.60
2018-05-12T11:32:43.462Z,50.60
2018-05-12T11:35:11.441Z,51.60
2018-05-12T11:37:40.112Z,51.20
2018-05-12T11:40:08.018Z,51.00
2018-05-12T11:42:35.963Z,52.60
2018-05-12T11:45:04.692Z,48.50
2018-05-12T11:47:32.658Z,48.50
2018-05-12T11:50:00.600Z,50.20
2018-05-12T11:52:29.318Z,50.60
2018-05-12T11:54:57.220Z,50.60
2018-05-12T11:57:25.134Z,50.90
2018-05-12T11:59:53.052Z,47.20
2018-05-12T12:02:20.999Z,50.20
2018-05-12T12:04:48.928Z,50.60
2018-05-12T12:07:17.646Z,50.10
2018-05-12T12:09:45.565Z,50.10
2018-05-12T12:12:13.570Z,50.90
2018-05-12T12:14:41.552Z,48.10
2018-05-12T12:17:09.486Z,51.20
2018-05-12T12:19:38.257Z,46.90
2018-05-12T12:22:06.256Z,46.80
2018-05-12T12:24:34.955Z,48.60
2018-05-12T12:27:02.941Z,48.50
2018-05-12T12:29:30.943Z,48.10
2018-05-12T12:31:58.862Z,47.20
2018-05-12T12:34:26.858Z,45.90
2018-05-12T12:36:54.886Z,48.60
2018-05-12T12:39:23.570Z,48.90
2018-05-12T12:41:52.232Z,48.40
2018-05-12T12:44:20.246Z,47.60
2018-05-12T12:46:48.215Z,46.20
2018-05-12T12:49:16.137Z,46.20
2018-05-12T12:51:44.080Z,46.10
2018-05-12T12:54:12.095Z,47.00
2018-05-12T12:56:40.876Z,47.90
2018-05-12T12:59:08.791Z,47.50
2018-05-12T13:01:36.682Z,45.90
2018-05-12T13:04:05.844Z,45.90
2018-05-12T13:06:34.941Z,47.20
2018-05-12T13:09:02.910Z,46.10
2018-05-12T13:11:30.937Z,46.40
2018-05-12T13:13:58.915Z,46.50
2018-05-12T13:16:26.846Z,44.80
2018-05-12T13:18:54.916Z,42.30
2018-05-12T13:21:22.937Z,44.20
2018-05-12T13:23:51.692Z,44.00
2018-05-12T13:26:19.650Z,43.90
2018-05-12T13:28:47.580Z,45.10
2018-05-12T13:31:16.364Z,40.70
2018-05-12T13:33:44.318Z,40.60
2018-05-12T13:36:13.015Z,42.80
2018-05-12T13:38:41.714Z,44.00
2018-05-12T13:41:09.632Z,44.00
2018-05-12T13:43:37.642Z,44.20
2018-05-12T13:46:06.311Z,42.10
2018-05-12T13:48:34.255Z,42.00
2018-05-12T13:51:02.249Z,44.00
2018-05-12T13:53:30.933Z,43.50
2018-05-12T13:55:58.896Z,43.40
2018-05-12T13:58:26.839Z,45.10
2018-05-12T14:00:54.842Z,45.40
2018-05-12T14:03:22.728Z,42.70
2018-05-12T14:05:51.499Z,43.30
2018-05-12T14:08:19.487Z,43.30
2018-05-12T14:10:48.342Z,45.20
2018-05-12T14:13:17.106Z,45.00
2018-05-12T14:15:45.024Z,45.00
2018-05-12T14:18:14.079Z,42.90
2018-05-12T14:20:42.042Z,42.90
2018-05-12T14:23:09.985Z,43.90
2018-05-12T14:25:38.042Z,43.30
2018-05-12T14:28:06.811Z,41.90
2018-05-12T14:30:34.728Z,41.80
2018-05-12T14:33:02.847Z,41.30
2018-05-12T14:35:31.042Z,41.70
2018-05-12T14:37:59.715Z,41.70
2018-05-12T14:40:27.768Z,41.70
2018-05-12T14:42:55.838Z,38.60
2018-05-12T14:45:23.842Z,40.90
2018-05-12T14:47:52.531Z,42.60
2018-05-12T14:50:21.308Z,43.60
2018-05-12T14:52:49.202Z,43.60
2018-05-12T14:55:17.198Z,41.50
2018-05-12T14:57:45.148Z,40.00
2018-05-12T15:00:13.096Z,40.90
2018-05-12T15:02:41.841Z,39.00
2018-05-12T15:05:09.791Z,39.00
2018-05-12T15:07:37.756Z,42.60
2018-05-12T15:10:05.731Z,42.20
2018-05-12T15:12:33.727Z,42.50
2018-05-12T15:15:01.648Z,42.30
2018-05-12T15:17:29.554Z,40.00
2018-05-12T15:19:57.550Z,40.70
2018-05-12T15:22:25.517Z,41.60
2018-05-12T15:24:53.438Z,41.00
2018-05-12T15:27:21.435Z,41.20
2018-05-12T15:29:49.407Z,41.60
2018-05-12T15:32:17.378Z,40.80
2018-05-12T15:34:45.356Z,41.80
2018-05-12T15:37:13.283Z,42.40
2018-05-12T15:39:41.196Z,42.90
2018-05-12T15:42:09.171Z,41.20
2018-05-12T15:44:37.183Z,42.10
2018-05-12T15:47:05.150Z,40.70
2018-05-12T15:49:33.112Z,40.40
2018-05-12T15:52:01.873Z,40.10
2018-05-12T15:54:29.929Z,40.10
2018-05-12T15:56:57.950Z,42.00
2018-05-12T15:59:25.966Z,44.30
2018-05-12T16:01:53.975Z,47.10
2018-05-12T16:04:22.988Z,47.40
2018-05-12T16:06:50.938Z,47.40
2018-05-12T16:09:19.703Z,47.50
2018-05-12T16:11:47.687Z,47.50
2018-05-12T16:14:15.668Z,46.80
2018-05-12T16:16:44.383Z,47.40
2018-05-12T16:19:12.381Z,47.30
2018-05-12T16:21:40.351Z,46.50
2018-05-12T16:24:09.034Z,50.50
2018-05-12T16:26:37.191Z,50.60
2018-05-12T16:29:05.213Z,51.70
2018-05-12T16:31:34.021Z,49.60
2018-05-12T16:34:02.064Z,49.60
2018-05-12T16:36:30.059Z,51.10
2018-05-12T16:38:58.732Z,52.40
2018-05-12T16:41:27.480Z,52.10
2018-05-12T16:43:55.474Z,52.10
2018-05-12T16:46:23.447Z,53.30
2018-05-12T16:48:51.471Z,53.70
2018-05-12T16:51:19.439Z,55.10
2018-05-12T16:53:47.371Z,56.20
2018-05-12T16:56:16.153Z,57.00
2018-05-12T16:58:44.060Z,56.30
2018-05-12T17:01:11.986Z,56.50
2018-05-12T17:03:39.959Z,56.40
2018-05-12T17:06:08.651Z,55.10
2018-05-12T17:08:40.156Z,54.90
2018-05-12T17:11:08.212Z,54.80
2018-05-12T17:13:36.127Z,54.90
2018-05-12T17:16:04.127Z,54.60
2018-05-12T17:18:32.982Z,52.00
2018-05-12T17:21:00.962Z,51.80
2018-05-12T17:23:28.950Z,51.90
2018-05-12T17:25:57.750Z,53.10
2018-05-12T17:28:26.444Z,54.10
2018-05-12T17:30:54.409Z,54.10
2018-05-12T17:33:23.116Z,54.70
2018-05-12T17:35:51.050Z,54.70
2018-05-12T17:38:19.747Z,53.10
2018-05-12T17:40:48.536Z,53.80
2018-05-12T17:43:17.251Z,54.40
2018-05-12T17:45:45.179Z,54.40
2018-05-12T17:48:13.894Z,55.30
2018-05-12T17:50:41.811Z,55.30
2018-05-12T17:53:09.739Z,55.30
2018-05-12T17:55:37.776Z,55.80
2018-05-12T17:58:06.168Z,57.00
2018-05-12T18:00:34.216Z,56.80
2018-05-12T18:03:02.152Z,56.90
2018-05-12T18:05:30.806Z,59.00
2018-05-12T18:07:58.808Z,62.80
2018-05-12T18:10:26.826Z,63.70
2018-05-12T18:12:55.531Z,61.40
2018-05-12T18:15:23.516Z,61.30
2018-05-12T18:17:51.554Z,62.10
2018-05-12T18:22:54.575Z,64.70
2018-05-12T18:25:22.530Z,65.10
2018-05-12T18:27:51.242Z,63.90
2018-05-12T18:30:19.469Z,63.90
2018-05-12T18:32:47.466Z,64.50
2018-05-12T18:35:16.424Z,65.00
2018-05-12T18:37:44.363Z,64.90
2018-05-12T18:40:12.291Z,64.50
2018-05-12T18:42:41.065Z,64.00
2018-05-12T18:45:09.033Z,64.00
2018-05-12T18:47:36.971Z,64.40
2018-05-12T18:50:04.993Z,65.20
2018-05-12T18:52:33.752Z,66.40
2018-05-12T18:55:01.746Z,66.40
2018-05-12T18:57:30.478Z,66.80
2018-05-12T18:59:58.496Z,66.70
2018-05-12T19:02:27.171Z,68.90
2018-05-12T19:04:55.161Z,68.80
2018-05-12T19:07:23.881Z,72.10
2018-05-12T19:09:51.798Z,72.10
2018-05-12T19:12:19.695Z,73.20
2018-05-12T19:14:48.408Z,74.70
2018-05-12T19:17:16.491Z,74.70
2018-05-12T19:19:45.258Z,74.60
2018-05-12T19:22:13.269Z,74.60
2018-05-12T19:24:41.289Z,72.80
2018-05-12T19:27:09.209Z,70.40
2018-05-12T19:29:37.143Z,69.10
2018-05-12T19:32:05.194Z,68.10
2018-05-12T19:34:33.906Z,68.60
2018-05-12T19:37:01.871Z,68.50
2018-05-12T19:39:29.837Z,67.00
2018-05-12T19:41:57.774Z,68.80
2018-05-12T19:44:26.483Z,70.20
2018-05-12T19:46:54.401Z,70.10
2018-05-12T19:49:22.391Z,71.10
2018-05-12T19:51:50.338Z,72.10
2018-05-12T19:54:18.258Z,73.10
2018-05-12T19:56:46.265Z,74.00
2018-05-12T19:59:14.194Z,75.00
2018-05-12T20:01:42.215Z,74.60
2018-05-12T20:04:10.181Z,73.70
2018-05-12T20:06:38.164Z,74.50
2018-05-12T20:09:06.150Z,73.70
2018-05-12T20:11:34.155Z,74.10
2018-05-12T20:14:02.184Z,74.40
2018-05-12T20:16:30.098Z,74.90
2018-05-12T20:18:58.062Z,74.50
2018-05-12T20:21:26.002Z,74.70
2018-05-12T20:23:54.834Z,75.90
2018-05-12T20:26:22.818Z,75.20
2018-05-12T20:28:50.746Z,75.60
2018-05-12T20:31:19.506Z,76.40
2018-05-12T20:33:47.443Z,76.30
2018-05-12T20:36:15.364Z,77.00
2018-05-12T20:38:44.121Z,76.70
2018-05-12T20:41:12.089Z,76.70
2018-05-12T20:43:40.050Z,76.70
2018-05-12T20:46:07.963Z,76.90
2018-05-12T20:48:36.756Z,77.20
2018-05-12T20:51:04.654Z,77.10
2018-05-12T20:53:32.611Z,76.80
2018-05-12T20:56:00.582Z,76.20
2018-05-12T21:01:02.711Z,75.90
2018-05-12T21:03:30.640Z,75.80
2018-05-12T21:05:58.558Z,75.50
2018-05-12T21:08:26.531Z,75.70
2018-05-12T21:10:54.441Z,76.40
2018-05-12T21:13:22.434Z,76.50
2018-05-12T21:15:50.390Z,75.60
2018-05-12T21:18:18.332Z,75.80
2018-05-12T21:20:47.093Z,75.80
2018-05-12T21:23:15.077Z,75.80
2018-05-12T21:25:43.854Z,76.80
2018-05-12T21:28:12.547Z,76.90
2018-05-12T21:30:41.242Z,77.20
2018-05-12T21:33:09.970Z,76.90
2018-05-12T21:35:37.960Z,77.00
2018-05-12T21:38:05.868Z,77.40
2018-05-12T21:40:34.638Z,77.50
2018-05-12T21:43:02.654Z,77.50
2018-05-12T21:45:30.826Z,78.20
2018-05-12T21:47:58.771Z,78.20
2018-05-12T21:50:27.454Z,78.80
2018-05-12T21:52:56.225Z,78.70
2018-05-12T21:55:24.227Z,78.70
2018-05-12T21:57:52.182Z,78.50
2018-05-12T22:00:20.893Z,77.80
2018-05-12T22:02:48.853Z,77.90
2018-05-12T22:05:16.765Z,77.70
2018-05-12T22:07:44.764Z,77.30
2018-05-12T22:10:13.475Z,76.90
2018-05-12T22:12:42.201Z,77.50
2018-05-12T22:15:10.142Z,77.50
2018-05-12T22:17:38.115Z,76.90
2018-05-12T22:20:06.113Z,77.00
2018-05-12T22:22:33.995Z,78.00
2018-05-12T22:25:01.923Z,78.50
2018-05-12T22:27:29.917Z,77.70
2018-05-12T22:29:57.874Z,78.20
2018-05-12T22:32:25.884Z,78.50
2018-05-12T22:34:53.804Z,78.80
2018-05-12T22:37:21.766Z,78.90
2018-05-12T22:39:49.726Z,78.70
2018-05-12T22:42:18.451Z,78.40
2018-05-12T22:44:46.422Z,78.40
2018-05-12T22:47:14.415Z,78.00
2018-05-12T22:49:42.334Z,78.20
2018-05-12T22:52:10.293Z,78.20
2018-05-12T22:54:39.067Z,78.30
2018-05-12T22:57:07.758Z,78.30
2018-05-12T22:59:36.447Z,79.10
2018-05-12T23:02:05.251Z,79.50
2018-05-12T23:04:33.195Z,79.60
2018-05-12T23:07:01.846Z,80.80
2018-05-12T23:09:29.815Z,80.90
2018-05-12T23:11:57.675Z,81.10
2018-05-12T23:14:25.584Z,81.10
2018-05-12T23:16:53.524Z,80.90
2018-05-12T23:19:21.410Z,80.50
2018-05-12T23:21:50.154Z,80.60
2018-05-12T23:24:18.062Z,80.60
2018-05-12T23:26:46.031Z,80.90
2018-05-12T23:29:13.915Z,81.30
2018-05-12T23:31:42.665Z,81.80
2018-05-12T23:34:10.587Z,81.80
2018-05-12T23:36:39.440Z,81.80
2018-05-12T23:39:07.335Z,81.80
2018-05-12T23:41:36.004Z,81.90
2018-05-12T23:44:03.892Z,81.90
2018-05-12T23:46:32.645Z,82.10
2018-05-12T23:49:00.527Z,82.10
2018-05-12T23:51:28.550Z,81.70
2018-05-12T23:53:57.263Z,82.40
2018-05-12T23:56:25.200Z,82.40
2018-05-12T23:58:53.087Z,82.10
